sensor_id;sensor_type;location;lat;lon;timestamp;temperature;humidity
53904;DHT22;39812;52.430;16.936;2022-12-24T00:01:09;6.40;99.90
53904;DHT22;39812;52.430;16.936;2022-12-24T00:03:36;6.40;99.90
53904;DHT22;39812;52.430;16.936;2022-12-24T00:06:06;6.40;99.90
53904;DHT22;39812;52.430;16.936;2022-12-24T00:08:32;6.30;99.90
53904;DHT22;39812;52.430;16.936;2022-12-24T00:10:57;6.30;99.90
53904;DHT22;39812;52.430;16.936;2022-12-24T00:13:23;6.30;99.90
53904;DHT22;39812;52.430;16.936;2022-12-24T00:15:51;6.30;99.90
53904;DHT22;39812;52.430;16.936;2022-12-24T00:18:16;6.30;99.90
53904;DHT22;39812;52.430;16.936;2022-12-24T00:20:48;6.30;99.90
53904;DHT22;39812;52.430;16.936;2022-12-24T00:23:15;6.30;99.90
53904;DHT22;39812;52.430;16.936;2022-12-24T00:25:41;6.30;99.90
53904;DHT22;39812;52.430;16.936;2022-12-24T00:28:07;6.30;99.90
53904;DHT22;39812;52.430;16.936;2022-12-24T00:30:32;6.30;99.90
53904;DHT22;39812;52.430;16.936;2022-12-24T00:32:58;6.30;99.90
53904;DHT22;39812;52.430;16.936;2022-12-24T00:35:24;6.30;99.90
53904;DHT22;39812;52.430;16.936;2022-12-24T00:37:50;6.20;99.90
53904;DHT22;39812;52.430;16.936;2022-12-24T00:40:16;6.20;99.90
53904;DHT22;39812;52.430;16.936;2022-12-24T00:42:42;6.20;99.90
53904;DHT22;39812;52.430;16.936;2022-12-24T00:45:08;6.20;99.90
53904;DHT22;39812;52.430;16.936;2022-12-24T00:47:34;6.20;99.90
53904;DHT22;39812;52.430;16.936;2022-12-24T00:50:00;6.10;99.90
53904;DHT22;39812;52.430;16.936;2022-12-24T00:52:26;6.10;99.90
53904;DHT22;39812;52.430;16.936;2022-12-24T00:54:52;6.10;99.90
53904;DHT22;39812;52.430;16.936;2022-12-24T00:57:18;6.10;99.90
53904;DHT22;39812;52.430;16.936;2022-12-24T00:59:43;6.10;99.90
53904;DHT22;39812;52.430;16.936;2022-12-24T01:02:09;6.10;99.90
53904;DHT22;39812;52.430;16.936;2022-12-24T01:04:35;6.10;99.90
53904;DHT22;39812;52.430;16.936;2022-12-24T01:07:19;6.20;99.90
53904;DHT22;39812;52.430;16.936;2022-12-24T01:09:44;6.20;99.90
53904;DHT22;39812;52.430;16.936;2022-12-24T01:12:10;6.20;99.90
53904;DHT22;39812;52.430;16.936;2022-12-24T01:14:36;6.20;99.90
53904;DHT22;39812;52.430;16.936;2022-12-24T01:17:03;6.20;99.90
53904;DHT22;39812;52.430;16.936;2022-12-24T01:19:29;6.20;99.90
53904;DHT22;39812;52.430;16.936;2022-12-24T01:21:54;6.20;99.90
53904;DHT22;39812;52.430;16.936;2022-12-24T01:24:20;6.20;99.90
53904;DHT22;39812;52.430;16.936;2022-12-24T01:26:46;6.20;99.90
53904;DHT22;39812;52.430;16.936;2022-12-24T01:29:12;6.20;99.90
53904;DHT22;39812;52.430;16.936;2022-12-24T01:31:38;6.10;99.90
53904;DHT22;39812;52.430;16.936;2022-12-24T01:34:04;6.10;99.90
53904;DHT22;39812;52.430;16.936;2022-12-24T01:36:29;6.10;99.90
53904;DHT22;39812;52.430;16.936;2022-12-24T01:38:55;6.10;99.90
53904;DHT22;39812;52.430;16.936;2022-12-24T01:41:22;6.10;99.90
53904;DHT22;39812;52.430;16.936;2022-12-24T01:46:41;6.20;99.90
53904;DHT22;39812;52.430;16.936;2022-12-24T01:49:09;6.10;99.90
53904;DHT22;39812;52.430;16.936;2022-12-24T01:51:42;6.10;99.90
53904;DHT22;39812;52.430;16.936;2022-12-24T01:57:29;6.10;99.90
53904;DHT22;39812;52.430;16.936;2022-12-24T01:59:58;6.00;99.90
53904;DHT22;39812;52.430;16.936;2022-12-24T02:02:26;6.00;99.90
53904;DHT22;39812;52.430;16.936;2022-12-24T02:05:08;6.00;99.90
53904;DHT22;39812;52.430;16.936;2022-12-24T02:07:35;5.90;99.90
53904;DHT22;39812;52.430;16.936;2022-12-24T02:10:03;5.90;99.90
53904;DHT22;39812;52.430;16.936;2022-12-24T02:12:31;5.90;99.90
53904;DHT22;39812;52.430;16.936;2022-12-24T02:14:59;5.80;99.90
53904;DHT22;39812;52.430;16.936;2022-12-24T02:34:14;5.80;99.90
53904;DHT22;39812;52.430;16.936;2022-12-24T02:36:49;5.80;99.90
53904;DHT22;39812;52.430;16.936;2022-12-24T02:39:27;5.70;99.90
53904;DHT22;39812;52.430;16.936;2022-12-24T02:41:57;5.70;99.90
53904;DHT22;39812;52.430;16.936;2022-12-24T02:44:39;5.80;99.90
53904;DHT22;39812;52.430;16.936;2022-12-24T02:47:07;5.80;99.90
53904;DHT22;39812;52.430;16.936;2022-12-24T02:49:35;5.70;99.90
53904;DHT22;39812;52.430;16.936;2022-12-24T02:52:00;5.80;99.90
53904;DHT22;39812;52.430;16.936;2022-12-24T02:54:26;5.70;99.90
53904;DHT22;39812;52.430;16.936;2022-12-24T02:57:02;5.70;99.90
53904;DHT22;39812;52.430;16.936;2022-12-24T03:02:25;5.70;99.90
53904;DHT22;39812;52.430;16.936;2022-12-24T03:08:08;5.70;99.90
53904;DHT22;39812;52.430;16.936;2022-12-24T03:10:59;5.70;99.90
53904;DHT22;39812;52.430;16.936;2022-12-24T03:13:27;5.70;99.90
53904;DHT22;39812;52.430;16.936;2022-12-24T03:15:53;5.70;99.90
53904;DHT22;39812;52.430;16.936;2022-12-24T03:18:22;5.70;99.90
53904;DHT22;39812;52.430;16.936;2022-12-24T03:21:11;5.70;99.90
53904;DHT22;39812;52.430;16.936;2022-12-24T03:23:38;5.70;99.90
53904;DHT22;39812;52.430;16.936;2022-12-24T03:26:07;5.70;99.90
53904;DHT22;39812;52.430;16.936;2022-12-24T03:28:34;5.60;99.90
53904;DHT22;39812;52.430;16.936;2022-12-24T03:31:04;5.60;99.90
53904;DHT22;39812;52.430;16.936;2022-12-24T03:33:30;5.60;99.90
53904;DHT22;39812;52.430;16.936;2022-12-24T03:35:55;5.50;99.90
53904;DHT22;39812;52.430;16.936;2022-12-24T03:38:21;5.50;99.90
53904;DHT22;39812;52.430;16.936;2022-12-24T03:40:47;5.60;99.90
53904;DHT22;39812;52.430;16.936;2022-12-24T03:43:13;5.60;99.90
53904;DHT22;39812;52.430;16.936;2022-12-24T03:45:38;5.60;99.90
53904;DHT22;39812;52.430;16.936;2022-12-24T03:48:04;5.60;99.90
53904;DHT22;39812;52.430;16.936;2022-12-24T03:50:31;5.60;99.90
53904;DHT22;39812;52.430;16.936;2022-12-24T03:52:56;5.60;99.90
53904;DHT22;39812;52.430;16.936;2022-12-24T03:55:22;5.60;99.90
53904;DHT22;39812;52.430;16.936;2022-12-24T03:57:48;5.60;99.90
53904;DHT22;39812;52.430;16.936;2022-12-24T04:00:14;5.60;99.90
53904;DHT22;39812;52.430;16.936;2022-12-24T04:02:40;5.60;99.90
53904;DHT22;39812;52.430;16.936;2022-12-24T04:05:07;5.50;99.90
53904;DHT22;39812;52.430;16.936;2022-12-24T04:07:33;5.50;99.90
53904;DHT22;39812;52.430;16.936;2022-12-24T04:09:59;5.60;99.90
53904;DHT22;39812;52.430;16.936;2022-12-24T04:12:25;5.50;99.90
53904;DHT22;39812;52.430;16.936;2022-12-24T04:14:51;5.50;99.90
53904;DHT22;39812;52.430;16.936;2022-12-24T04:17:16;5.50;99.90
53904;DHT22;39812;52.430;16.936;2022-12-24T04:19:42;5.50;99.90
53904;DHT22;39812;52.430;16.936;2022-12-24T04:22:08;5.50;99.90
53904;DHT22;39812;52.430;16.936;2022-12-24T04:24:33;5.60;99.90
53904;DHT22;39812;52.430;16.936;2022-12-24T04:26:59;5.50;99.90
53904;DHT22;39812;52.430;16.936;2022-12-24T04:29:25;5.50;99.90
53904;DHT22;39812;52.430;16.936;2022-12-24T04:31:50;5.60;99.90
53904;DHT22;39812;52.430;16.936;2022-12-24T04:34:16;5.60;99.90
53904;DHT22;39812;52.430;16.936;2022-12-24T04:36:42;5.60;99.90
53904;DHT22;39812;52.430;16.936;2022-12-24T04:39:08;5.60;99.90
53904;DHT22;39812;52.430;16.936;2022-12-24T04:41:34;5.60;99.90
53904;DHT22;39812;52.430;16.936;2022-12-24T04:43:59;5.60;99.90
53904;DHT22;39812;52.430;16.936;2022-12-24T04:46:27;5.60;99.90
53904;DHT22;39812;52.430;16.936;2022-12-24T04:48:55;5.60;99.90
53904;DHT22;39812;52.430;16.936;2022-12-24T04:51:22;5.50;99.90
53904;DHT22;39812;52.430;16.936;2022-12-24T04:53:48;5.60;99.90
53904;DHT22;39812;52.430;16.936;2022-12-24T04:56:24;5.60;99.90
53904;DHT22;39812;52.430;16.936;2022-12-24T04:58:51;5.50;99.90
53904;DHT22;39812;52.430;16.936;2022-12-24T05:01:28;5.50;99.90
53904;DHT22;39812;52.430;16.936;2022-12-24T05:03:54;5.50;99.90
53904;DHT22;39812;52.430;16.936;2022-12-24T05:06:22;5.50;99.90
53904;DHT22;39812;52.430;16.936;2022-12-24T05:08:48;5.50;99.90
53904;DHT22;39812;52.430;16.936;2022-12-24T05:11:14;5.40;99.90
53904;DHT22;39812;52.430;16.936;2022-12-24T05:13:44;5.40;99.90
53904;DHT22;39812;52.430;16.936;2022-12-24T05:16:10;5.50;99.90
53904;DHT22;39812;52.430;16.936;2022-12-24T05:18:36;5.40;99.90
53904;DHT22;39812;52.430;16.936;2022-12-24T05:21:13;5.40;99.90
53904;DHT22;39812;52.430;16.936;2022-12-24T05:23:39;5.40;99.90
53904;DHT22;39812;52.430;16.936;2022-12-24T05:26:41;5.40;99.90
53904;DHT22;39812;52.430;16.936;2022-12-24T05:29:08;5.40;99.90
53904;DHT22;39812;52.430;16.936;2022-12-24T05:31:36;5.50;99.90
53904;DHT22;39812;52.430;16.936;2022-12-24T05:34:05;5.50;99.90
53904;DHT22;39812;52.430;16.936;2022-12-24T05:36:31;5.40;99.90
53904;DHT22;39812;52.430;16.936;2022-12-24T05:38:57;5.40;99.90
53904;DHT22;39812;52.430;16.936;2022-12-24T05:41:23;5.40;99.90
53904;DHT22;39812;52.430;16.936;2022-12-24T05:43:48;5.40;99.90
53904;DHT22;39812;52.430;16.936;2022-12-24T05:46:16;5.40;99.90
53904;DHT22;39812;52.430;16.936;2022-12-24T05:48:43;5.40;99.90
53904;DHT22;39812;52.430;16.936;2022-12-24T05:51:11;5.40;99.90
53904;DHT22;39812;52.430;16.936;2022-12-24T05:53:37;5.40;99.90
53904;DHT22;39812;52.430;16.936;2022-12-24T05:56:15;5.30;99.90
53904;DHT22;39812;52.430;16.936;2022-12-24T05:58:42;5.30;99.90
53904;DHT22;39812;52.430;16.936;2022-12-24T06:01:09;5.30;99.90
53904;DHT22;39812;52.430;16.936;2022-12-24T06:03:35;5.30;99.90
53904;DHT22;39812;52.430;16.936;2022-12-24T06:06:03;5.30;99.90
53904;DHT22;39812;52.430;16.936;2022-12-24T06:08:30;5.20;99.90
53904;DHT22;39812;52.430;16.936;2022-12-24T06:10:58;5.20;99.90
53904;DHT22;39812;52.430;16.936;2022-12-24T06:13:24;5.20;99.90
53904;DHT22;39812;52.430;16.936;2022-12-24T06:15:54;5.30;99.90
53904;DHT22;39812;52.430;16.936;2022-12-24T06:18:20;5.20;99.90
53904;DHT22;39812;52.430;16.936;2022-12-24T06:20:50;5.20;99.90
53904;DHT22;39812;52.430;16.936;2022-12-24T06:23:16;5.30;99.90
53904;DHT22;39812;52.430;16.936;2022-12-24T06:25:42;5.20;99.90
53904;DHT22;39812;52.430;16.936;2022-12-24T06:28:07;5.20;99.90
53904;DHT22;39812;52.430;16.936;2022-12-24T06:30:33;5.20;99.90
53904;DHT22;39812;52.430;16.936;2022-12-24T06:32:58;5.20;99.90
53904;DHT22;39812;52.430;16.936;2022-12-24T06:35:24;5.20;99.90
53904;DHT22;39812;52.430;16.936;2022-12-24T06:37:50;5.20;99.90
53904;DHT22;39812;52.430;16.936;2022-12-24T06:40:15;5.20;99.90
53904;DHT22;39812;52.430;16.936;2022-12-24T06:42:41;5.20;99.90
53904;DHT22;39812;52.430;16.936;2022-12-24T06:45:07;5.20;99.90
53904;DHT22;39812;52.430;16.936;2022-12-24T06:47:33;5.20;99.90
53904;DHT22;39812;52.430;16.936;2022-12-24T06:49:59;5.20;99.90
53904;DHT22;39812;52.430;16.936;2022-12-24T06:52:24;5.10;99.90
53904;DHT22;39812;52.430;16.936;2022-12-24T06:54:50;5.10;99.90
53904;DHT22;39812;52.430;16.936;2022-12-24T06:57:15;5.10;99.90
53904;DHT22;39812;52.430;16.936;2022-12-24T06:59:41;5.10;99.90
53904;DHT22;39812;52.430;16.936;2022-12-24T07:02:08;5.20;99.90
53904;DHT22;39812;52.430;16.936;2022-12-24T07:04:34;5.10;99.90
53904;DHT22;39812;52.430;16.936;2022-12-24T07:06:59;5.10;99.90
53904;DHT22;39812;52.430;16.936;2022-12-24T07:09:25;5.20;99.90
53904;DHT22;39812;52.430;16.936;2022-12-24T07:11:51;5.20;99.90
53904;DHT22;39812;52.430;16.936;2022-12-24T07:14:16;5.20;99.90
53904;DHT22;39812;52.430;16.936;2022-12-24T07:16:42;5.30;99.90
53904;DHT22;39812;52.430;16.936;2022-12-24T07:19:08;5.30;99.90
53904;DHT22;39812;52.430;16.936;2022-12-24T07:21:33;5.30;99.90
53904;DHT22;39812;52.430;16.936;2022-12-24T07:23:59;5.20;99.90
53904;DHT22;39812;52.430;16.936;2022-12-24T07:26:24;5.20;99.90
53904;DHT22;39812;52.430;16.936;2022-12-24T07:28:50;5.10;99.90
53904;DHT22;39812;52.430;16.936;2022-12-24T07:31:16;5.20;99.90
53904;DHT22;39812;52.430;16.936;2022-12-24T07:33:41;5.10;99.90
53904;DHT22;39812;52.430;16.936;2022-12-24T07:36:09;5.10;99.90
53904;DHT22;39812;52.430;16.936;2022-12-24T07:38:38;5.10;99.90
53904;DHT22;39812;52.430;16.936;2022-12-24T07:41:04;5.20;99.90
53904;DHT22;39812;52.430;16.936;2022-12-24T07:43:32;5.30;99.90
53904;DHT22;39812;52.430;16.936;2022-12-24T07:45:58;5.30;99.90
53904;DHT22;39812;52.430;16.936;2022-12-24T07:48:25;5.30;99.90
53904;DHT22;39812;52.430;16.936;2022-12-24T07:50:51;5.30;99.90
53904;DHT22;39812;52.430;16.936;2022-12-24T07:53:17;5.30;99.90
53904;DHT22;39812;52.430;16.936;2022-12-24T07:55:44;5.30;99.90
53904;DHT22;39812;52.430;16.936;2022-12-24T07:58:09;5.40;99.90
53904;DHT22;39812;52.430;16.936;2022-12-24T08:00:35;5.40;99.90
53904;DHT22;39812;52.430;16.936;2022-12-24T08:03:01;5.40;99.90
53904;DHT22;39812;52.430;16.936;2022-12-24T08:05:27;5.40;99.90
53904;DHT22;39812;52.430;16.936;2022-12-24T08:07:53;5.50;99.90
53904;DHT22;39812;52.430;16.936;2022-12-24T08:10:18;5.50;99.90
53904;DHT22;39812;52.430;16.936;2022-12-24T08:12:44;5.50;99.90
53904;DHT22;39812;52.430;16.936;2022-12-24T08:15:10;5.60;99.90
53904;DHT22;39812;52.430;16.936;2022-12-24T08:17:36;5.60;99.90
53904;DHT22;39812;52.430;16.936;2022-12-24T08:20:03;5.60;99.90
53904;DHT22;39812;52.430;16.936;2022-12-24T08:22:29;5.60;99.90
53904;DHT22;39812;52.430;16.936;2022-12-24T08:24:55;5.70;99.90
53904;DHT22;39812;52.430;16.936;2022-12-24T08:27:21;5.70;99.90
53904;DHT22;39812;52.430;16.936;2022-12-24T08:29:47;5.70;99.90
53904;DHT22;39812;52.430;16.936;2022-12-24T08:32:12;5.70;99.90
53904;DHT22;39812;52.430;16.936;2022-12-24T08:34:38;5.80;99.90
53904;DHT22;39812;52.430;16.936;2022-12-24T08:37:03;5.70;99.90
53904;DHT22;39812;52.430;16.936;2022-12-24T08:39:29;5.70;99.90
53904;DHT22;39812;52.430;16.936;2022-12-24T08:41:55;5.80;99.90
53904;DHT22;39812;52.430;16.936;2022-12-24T08:44:20;5.80;99.90
53904;DHT22;39812;52.430;16.936;2022-12-24T08:46:46;5.80;99.90
53904;DHT22;39812;52.430;16.936;2022-12-24T08:49:12;5.80;99.90
53904;DHT22;39812;52.430;16.936;2022-12-24T08:51:38;5.90;99.90
53904;DHT22;39812;52.430;16.936;2022-12-24T08:54:03;5.90;99.90
53904;DHT22;39812;52.430;16.936;2022-12-24T08:56:29;5.80;99.90
53904;DHT22;39812;52.430;16.936;2022-12-24T08:58:55;5.90;99.90
53904;DHT22;39812;52.430;16.936;2022-12-24T09:01:20;6.00;99.90
53904;DHT22;39812;52.430;16.936;2022-12-24T09:03:47;6.00;99.90
53904;DHT22;39812;52.430;16.936;2022-12-24T09:06:13;6.00;99.90
53904;DHT22;39812;52.430;16.936;2022-12-24T09:08:39;6.00;99.90
53904;DHT22;39812;52.430;16.936;2022-12-24T09:11:10;6.20;99.90
53904;DHT22;39812;52.430;16.936;2022-12-24T09:13:37;6.20;99.90
53904;DHT22;39812;52.430;16.936;2022-12-24T09:16:03;6.30;99.90
53904;DHT22;39812;52.430;16.936;2022-12-24T09:18:29;6.40;99.90
53904;DHT22;39812;52.430;16.936;2022-12-24T09:21:09;6.50;99.90
53904;DHT22;39812;52.430;16.936;2022-12-24T09:23:37;6.50;99.90
53904;DHT22;39812;52.430;16.936;2022-12-24T09:26:15;6.60;99.90
53904;DHT22;39812;52.430;16.936;2022-12-24T09:28:41;6.70;99.90
53904;DHT22;39812;52.430;16.936;2022-12-24T09:31:07;6.70;99.90
53904;DHT22;39812;52.430;16.936;2022-12-24T09:33:35;6.70;99.90
53904;DHT22;39812;52.430;16.936;2022-12-24T09:36:02;6.70;99.90
53904;DHT22;39812;52.430;16.936;2022-12-24T09:38:28;6.70;99.90
53904;DHT22;39812;52.430;16.936;2022-12-24T09:40:55;6.70;99.90
53904;DHT22;39812;52.430;16.936;2022-12-24T09:43:24;6.50;99.90
53904;DHT22;39812;52.430;16.936;2022-12-24T09:48:23;6.60;99.90
53904;DHT22;39812;52.430;16.936;2022-12-24T09:51:21;6.70;99.90
53904;DHT22;39812;52.430;16.936;2022-12-24T09:54:01;6.80;99.90
53904;DHT22;39812;52.430;16.936;2022-12-24T09:56:36;6.80;99.90
53904;DHT22;39812;52.430;16.936;2022-12-24T09:59:05;6.80;99.90
53904;DHT22;39812;52.430;16.936;2022-12-24T10:01:34;6.90;99.90
53904;DHT22;39812;52.430;16.936;2022-12-24T10:04:09;7.10;99.90
53904;DHT22;39812;52.430;16.936;2022-12-24T10:15:45;7.30;99.90
53904;DHT22;39812;52.430;16.936;2022-12-24T10:21:15;7.00;99.90
53904;DHT22;39812;52.430;16.936;2022-12-24T10:23:57;7.10;99.90
53904;DHT22;39812;52.430;16.936;2022-12-24T10:27:02;7.10;99.90
53904;DHT22;39812;52.430;16.936;2022-12-24T10:29:32;7.10;99.90
53904;DHT22;39812;52.430;16.936;2022-12-24T10:34:50;7.20;99.90
53904;DHT22;39812;52.430;16.936;2022-12-24T10:37:25;7.40;99.90
53904;DHT22;39812;52.430;16.936;2022-12-24T10:39:53;7.40;99.90
53904;DHT22;39812;52.430;16.936;2022-12-24T10:42:20;7.50;99.90
53904;DHT22;39812;52.430;16.936;2022-12-24T10:44:54;7.60;99.90
53904;DHT22;39812;52.430;16.936;2022-12-24T10:47:21;7.50;99.90
53904;DHT22;39812;52.430;16.936;2022-12-24T10:49:52;7.40;99.90
53904;DHT22;39812;52.430;16.936;2022-12-24T10:52:21;7.20;99.90
53904;DHT22;39812;52.430;16.936;2022-12-24T10:57:40;7.10;99.90
53904;DHT22;39812;52.430;16.936;2022-12-24T11:00:19;7.20;99.90
53904;DHT22;39812;52.430;16.936;2022-12-24T11:02:46;7.10;99.90
53904;DHT22;39812;52.430;16.936;2022-12-24T11:05:35;7.10;99.90
53904;DHT22;39812;52.430;16.936;2022-12-24T11:08:04;7.10;99.90
53904;DHT22;39812;52.430;16.936;2022-12-24T11:10:30;7.10;99.90
53904;DHT22;39812;52.430;16.936;2022-12-24T11:12:57;7.00;99.90
53904;DHT22;39812;52.430;16.936;2022-12-24T11:15:30;6.90;99.90
53904;DHT22;39812;52.430;16.936;2022-12-24T11:18:05;7.00;99.90
53904;DHT22;39812;52.430;16.936;2022-12-24T11:20:37;7.00;99.90
53904;DHT22;39812;52.430;16.936;2022-12-24T11:23:03;7.10;99.90
53904;DHT22;39812;52.430;16.936;2022-12-24T11:25:31;7.20;99.90
53904;DHT22;39812;52.430;16.936;2022-12-24T11:28:11;7.30;99.90
53904;DHT22;39812;52.430;16.936;2022-12-24T11:30:41;7.30;99.90
53904;DHT22;39812;52.430;16.936;2022-12-24T11:35:39;7.50;99.90
53904;DHT22;39812;52.430;16.936;2022-12-24T11:40:38;7.40;99.90
53904;DHT22;39812;52.430;16.936;2022-12-24T11:43:05;7.20;99.90
53904;DHT22;39812;52.430;16.936;2022-12-24T11:45:32;7.10;99.90
53904;DHT22;39812;52.430;16.936;2022-12-24T11:47:59;6.90;99.90
53904;DHT22;39812;52.430;16.936;2022-12-24T11:50:31;6.80;99.90
53904;DHT22;39812;52.430;16.936;2022-12-24T11:55:36;6.70;99.90
53904;DHT22;39812;52.430;16.936;2022-12-24T12:00:50;6.60;99.90
53904;DHT22;39812;52.430;16.936;2022-12-24T12:03:30;6.50;99.90
53904;DHT22;39812;52.430;16.936;2022-12-24T12:05:59;6.40;99.90
53904;DHT22;39812;52.430;16.936;2022-12-24T12:08:27;6.40;99.90
53904;DHT22;39812;52.430;16.936;2022-12-24T12:10:54;6.40;99.90
53904;DHT22;39812;52.430;16.936;2022-12-24T12:13:27;6.50;99.90
53904;DHT22;39812;52.430;16.936;2022-12-24T12:16:04;6.50;99.90
53904;DHT22;39812;52.430;16.936;2022-12-24T12:18:34;6.50;99.90
53904;DHT22;39812;52.430;16.936;2022-12-24T12:21:24;6.50;99.90
53904;DHT22;39812;52.430;16.936;2022-12-24T12:23:58;6.40;99.90
53904;DHT22;39812;52.430;16.936;2022-12-24T12:26:28;6.40;99.90
53904;DHT22;39812;52.430;16.936;2022-12-24T12:31:56;6.50;99.90
53904;DHT22;39812;52.430;16.936;2022-12-24T12:37:03;6.40;99.90
53904;DHT22;39812;52.430;16.936;2022-12-24T12:39:30;6.40;99.90
53904;DHT22;39812;52.430;16.936;2022-12-24T12:48:14;6.50;99.90
53904;DHT22;39812;52.430;16.936;2022-12-24T12:50:56;6.40;99.90
53904;DHT22;39812;52.430;16.936;2022-12-24T12:58:51;6.50;99.90
53904;DHT22;39812;52.430;16.936;2022-12-24T13:01:48;6.40;99.90
53904;DHT22;39812;52.430;16.936;2022-12-24T13:21:24;6.40;99.90
53904;DHT22;39812;52.430;16.936;2022-12-24T13:24:11;6.40;99.90
53904;DHT22;39812;52.430;16.936;2022-12-24T13:26:40;6.40;99.90
53904;DHT22;39812;52.430;16.936;2022-12-24T13:29:28;6.40;99.90
53904;DHT22;39812;52.430;16.936;2022-12-24T13:34:56;6.50;99.90
53904;DHT22;39812;52.430;16.936;2022-12-24T13:50:36;6.60;99.90
53904;DHT22;39812;52.430;16.936;2022-12-24T13:53:04;6.70;99.90
53904;DHT22;39812;52.430;16.936;2022-12-24T13:55:31;6.60;99.90
53904;DHT22;39812;52.430;16.936;2022-12-24T13:58:03;6.50;99.90
53904;DHT22;39812;52.430;16.936;2022-12-24T14:00:36;6.50;99.90
53904;DHT22;39812;52.430;16.936;2022-12-24T14:08:09;6.30;99.90
53904;DHT22;39812;52.430;16.936;2022-12-24T14:10:38;6.30;99.90
53904;DHT22;39812;52.430;16.936;2022-12-24T14:13:05;6.30;99.90
53904;DHT22;39812;52.430;16.936;2022-12-24T14:18:17;6.30;99.90
53904;DHT22;39812;52.430;16.936;2022-12-24T14:20:51;6.20;99.90
53904;DHT22;39812;52.430;16.936;2022-12-24T14:23:43;6.30;99.90
53904;DHT22;39812;52.430;16.936;2022-12-24T14:26:14;6.20;99.90
53904;DHT22;39812;52.430;16.936;2022-12-24T14:28:48;6.00;99.90
53904;DHT22;39812;52.430;16.936;2022-12-24T14:31:17;6.00;99.90
53904;DHT22;39812;52.430;16.936;2022-12-24T14:33:43;5.90;99.90
53904;DHT22;39812;52.430;16.936;2022-12-24T14:36:10;5.80;99.90
53904;DHT22;39812;52.430;16.936;2022-12-24T14:38:40;5.70;99.90
53904;DHT22;39812;52.430;16.936;2022-12-24T14:46:30;5.70;99.90
53904;DHT22;39812;52.430;16.936;2022-12-24T14:54:42;5.60;99.90
53904;DHT22;39812;52.430;16.936;2022-12-24T14:57:13;5.50;99.90
53904;DHT22;39812;52.430;16.936;2022-12-24T14:59:56;5.50;99.90
53904;DHT22;39812;52.430;16.936;2022-12-24T15:02:49;5.50;99.90
53904;DHT22;39812;52.430;16.936;2022-12-24T15:05:22;5.50;99.90
53904;DHT22;39812;52.430;16.936;2022-12-24T15:07:57;5.50;99.90
53904;DHT22;39812;52.430;16.936;2022-12-24T15:12:53;5.40;99.90
53904;DHT22;39812;52.430;16.936;2022-12-24T15:15:19;5.40;99.90
53904;DHT22;39812;52.430;16.936;2022-12-24T15:17:45;5.20;99.90
53904;DHT22;39812;52.430;16.936;2022-12-24T15:20:17;5.20;99.90
53904;DHT22;39812;52.430;16.936;2022-12-24T15:22:45;5.20;99.90
53904;DHT22;39812;52.430;16.936;2022-12-24T15:25:23;5.20;99.90
53904;DHT22;39812;52.430;16.936;2022-12-24T15:27:49;5.20;99.90
53904;DHT22;39812;52.430;16.936;2022-12-24T15:30:24;5.20;99.90
53904;DHT22;39812;52.430;16.936;2022-12-24T15:32:53;5.20;99.90
53904;DHT22;39812;52.430;16.936;2022-12-24T15:37:57;5.20;99.90
53904;DHT22;39812;52.430;16.936;2022-12-24T15:40:24;5.20;99.90
53904;DHT22;39812;52.430;16.936;2022-12-24T15:42:50;5.20;99.90
53904;DHT22;39812;52.430;16.936;2022-12-24T15:45:20;5.20;99.90
53904;DHT22;39812;52.430;16.936;2022-12-24T15:47:56;5.30;99.90
53904;DHT22;39812;52.430;16.936;2022-12-24T15:53:05;5.40;99.90
53904;DHT22;39812;52.430;16.936;2022-12-24T15:55:40;5.40;99.90
53904;DHT22;39812;52.430;16.936;2022-12-24T15:58:26;5.40;99.90
53904;DHT22;39812;52.430;16.936;2022-12-24T16:03:34;5.40;99.90
53904;DHT22;39812;52.430;16.936;2022-12-24T16:08:34;5.40;99.90
53904;DHT22;39812;52.430;16.936;2022-12-24T16:11:32;5.40;99.90
53904;DHT22;39812;52.430;16.936;2022-12-24T16:14:13;5.40;99.90
53904;DHT22;39812;52.430;16.936;2022-12-24T16:16:43;5.40;99.90
53904;DHT22;39812;52.430;16.936;2022-12-24T16:19:27;5.50;99.90
53904;DHT22;39812;52.430;16.936;2022-12-24T16:21:59;5.50;99.90
53904;DHT22;39812;52.430;16.936;2022-12-24T16:24:46;5.50;99.90
53904;DHT22;39812;52.430;16.936;2022-12-24T16:27:12;5.50;99.90
53904;DHT22;39812;52.430;16.936;2022-12-24T16:29:38;5.50;99.90
53904;DHT22;39812;52.430;16.936;2022-12-24T16:32:04;5.50;99.90
53904;DHT22;39812;52.430;16.936;2022-12-24T16:34:30;5.50;99.90
53904;DHT22;39812;52.430;16.936;2022-12-24T16:36:57;5.40;99.90
53904;DHT22;39812;52.430;16.936;2022-12-24T16:39:32;5.40;99.90
53904;DHT22;39812;52.430;16.936;2022-12-24T16:41:59;5.30;99.90
53904;DHT22;39812;52.430;16.936;2022-12-24T16:44:45;5.30;99.90
53904;DHT22;39812;52.430;16.936;2022-12-24T16:47:21;5.30;99.90
53904;DHT22;39812;52.430;16.936;2022-12-24T16:49:49;5.30;99.90
53904;DHT22;39812;52.430;16.936;2022-12-24T16:52:20;5.30;99.90
53904;DHT22;39812;52.430;16.936;2022-12-24T16:54:50;5.30;99.90
53904;DHT22;39812;52.430;16.936;2022-12-24T16:57:16;5.30;99.90
53904;DHT22;39812;52.430;16.936;2022-12-24T16:59:42;5.30;99.90
53904;DHT22;39812;52.430;16.936;2022-12-24T17:02:14;5.30;99.90
53904;DHT22;39812;52.430;16.936;2022-12-24T17:04:41;5.20;99.90
53904;DHT22;39812;52.430;16.936;2022-12-24T17:07:07;5.30;99.90
53904;DHT22;39812;52.430;16.936;2022-12-24T17:09:33;5.30;99.90
53904;DHT22;39812;52.430;16.936;2022-12-24T17:11:58;5.30;99.90
53904;DHT22;39812;52.430;16.936;2022-12-24T17:14:25;5.20;99.90
53904;DHT22;39812;52.430;16.936;2022-12-24T17:16:50;5.10;99.90
53904;DHT22;39812;52.430;16.936;2022-12-24T17:19:16;5.10;99.90
53904;DHT22;39812;52.430;16.936;2022-12-24T17:21:42;5.00;99.90
53904;DHT22;39812;52.430;16.936;2022-12-24T17:24:08;5.00;99.90
53904;DHT22;39812;52.430;16.936;2022-12-24T17:26:35;5.10;99.90
53904;DHT22;39812;52.430;16.936;2022-12-24T17:29:01;5.00;99.90
53904;DHT22;39812;52.430;16.936;2022-12-24T17:31:30;4.90;99.90
53904;DHT22;39812;52.430;16.936;2022-12-24T17:33:57;4.90;99.90
53904;DHT22;39812;52.430;16.936;2022-12-24T17:36:23;5.00;99.90
53904;DHT22;39812;52.430;16.936;2022-12-24T17:38:48;4.90;99.90
53904;DHT22;39812;52.430;16.936;2022-12-24T17:41:16;4.90;99.90
53904;DHT22;39812;52.430;16.936;2022-12-24T17:43:43;4.90;99.90
53904;DHT22;39812;52.430;16.936;2022-12-24T17:46:11;4.80;99.90
53904;DHT22;39812;52.430;16.936;2022-12-24T17:48:37;4.80;99.90
53904;DHT22;39812;52.430;16.936;2022-12-24T17:51:08;4.80;99.90
53904;DHT22;39812;52.430;16.936;2022-12-24T17:53:37;4.70;99.90
53904;DHT22;39812;52.430;16.936;2022-12-24T17:56:04;4.60;99.90
53904;DHT22;39812;52.430;16.936;2022-12-24T17:58:30;4.70;99.90
53904;DHT22;39812;52.430;16.936;2022-12-24T18:00:56;4.70;99.90
53904;DHT22;39812;52.430;16.936;2022-12-24T18:03:22;4.70;99.90